sensor_id;sensor_type;location;lat;lon;timestamp;P1;durP1;ratioP1;P2;durP2;ratioP2
20597;SDS011;10457;48.770;11.446;2022-07-09T00:02:20;2.65;;;1.73;;
20597;SDS011;10457;48.770;11.446;2022-07-09T00:07:42;4.43;;;1.67;;
20597;SDS011;10457;48.770;11.446;2022-07-09T00:13:05;4.97;;;1.80;;
20597;SDS011;10457;48.770;11.446;2022-07-09T00:18:26;3.20;;;2.15;;
20597;SDS011;10457;48.770;11.446;2022-07-09T00:23:48;11.05;;;2.72;;
20597;SDS011;10457;48.770;11.446;2022-07-09T00:29:11;3.58;;;2.88;;
20597;SDS011;10457;48.770;11.446;2022-07-09T00:34:32;5.15;;;2.78;;
20597;SDS011;10457;48.770;11.446;2022-07-09T00:39:54;7.53;;;2.65;;
20597;SDS011;10457;48.770;11.446;2022-07-09T00:45:17;5.57;;;3.22;;
20597;SDS011;10457;48.770;11.446;2022-07-09T00:50:38;10.77;;;4.63;;
20597;SDS011;10457;48.770;11.446;2022-07-09T00:56:01;10.45;;;3.58;;
20597;SDS011;10457;48.770;11.446;2022-07-09T01:01:26;4.05;;;2.85;;
20597;SDS011;10457;48.770;11.446;2022-07-09T01:06:48;5.63;;;2.90;;
20597;SDS011;10457;48.770;11.446;2022-07-09T01:12:09;4.28;;;2.65;;
20597;SDS011;10457;48.770;11.446;2022-07-09T01:17:37;4.60;;;3.17;;
20597;SDS011;10457;48.770;11.446;2022-07-09T01:23:01;9.00;;;3.20;;
20597;SDS011;10457;48.770;11.446;2022-07-09T01:28:23;5.10;;;2.95;;
20597;SDS011;10457;48.770;11.446;2022-07-09T01:33:44;3.65;;;2.78;;
20597;SDS011;10457;48.770;11.446;2022-07-09T01:39:08;7.65;;;3.45;;
20597;SDS011;10457;48.770;11.446;2022-07-09T01:44:29;4.55;;;2.50;;
20597;SDS011;10457;48.770;11.446;2022-07-09T01:49:50;6.82;;;3.17;;
20597;SDS011;10457;48.770;11.446;2022-07-09T01:55:13;6.53;;;2.58;;
20597;SDS011;10457;48.770;11.446;2022-07-09T02:00:35;7.38;;;3.33;;
20597;SDS011;10457;48.770;11.446;2022-07-09T02:05:56;4.78;;;3.00;;
20597;SDS011;10457;48.770;11.446;2022-07-09T02:11:19;5.72;;;3.17;;
20597;SDS011;10457;48.770;11.446;2022-07-09T02:16:41;7.80;;;3.97;;
20597;SDS011;10457;48.770;11.446;2022-07-09T02:22:02;3.97;;;3.42;;
20597;SDS011;10457;48.770;11.446;2022-07-09T02:27:26;7.78;;;2.97;;
20597;SDS011;10457;48.770;11.446;2022-07-09T02:32:48;8.05;;;3.97;;
20597;SDS011;10457;48.770;11.446;2022-07-09T02:38:10;7.30;;;3.63;;
20597;SDS011;10457;48.770;11.446;2022-07-09T02:43:33;7.82;;;4.47;;
20597;SDS011;10457;48.770;11.446;2022-07-09T02:48:54;5.10;;;4.20;;
20597;SDS011;10457;48.770;11.446;2022-07-09T02:54:16;6.63;;;3.72;;
20597;SDS011;10457;48.770;11.446;2022-07-09T02:59:39;8.70;;;3.33;;
20597;SDS011;10457;48.770;11.446;2022-07-09T03:05:00;5.43;;;3.38;;
20597;SDS011;10457;48.770;11.446;2022-07-09T03:10:21;6.03;;;4.13;;
20597;SDS011;10457;48.770;11.446;2022-07-09T03:15:44;5.35;;;3.50;;
20597;SDS011;10457;48.770;11.446;2022-07-09T03:21:06;4.70;;;3.10;;
20597;SDS011;10457;48.770;11.446;2022-07-09T03:26:30;5.05;;;3.53;;
20597;SDS011;10457;48.770;11.446;2022-07-09T03:31:53;3.45;;;3.08;;
20597;SDS011;10457;48.770;11.446;2022-07-09T03:37:14;9.73;;;3.63;;
20597;SDS011;10457;48.770;11.446;2022-07-09T03:42:36;6.57;;;3.90;;
20597;SDS011;10457;48.770;11.446;2022-07-09T03:47:59;4.82;;;3.75;;
20597;SDS011;10457;48.770;11.446;2022-07-09T03:53:20;6.03;;;3.80;;
20597;SDS011;10457;48.770;11.446;2022-07-09T03:58:42;8.82;;;4.07;;
20597;SDS011;10457;48.770;11.446;2022-07-09T04:04:05;6.60;;;2.85;;
20597;SDS011;10457;48.770;11.446;2022-07-09T04:09:27;3.25;;;2.65;;
20597;SDS011;10457;48.770;11.446;2022-07-09T04:14:48;3.67;;;2.42;;
20597;SDS011;10457;48.770;11.446;2022-07-09T04:20:11;6.85;;;3.20;;
20597;SDS011;10457;48.770;11.446;2022-07-09T04:25:33;4.03;;;2.75;;
20597;SDS011;10457;48.770;11.446;2022-07-09T04:30:55;4.60;;;2.75;;
20597;SDS011;10457;48.770;11.446;2022-07-09T04:36:18;5.90;;;3.10;;
20597;SDS011;10457;48.770;11.446;2022-07-09T04:41:39;5.90;;;3.40;;
20597;SDS011;10457;48.770;11.446;2022-07-09T04:47:01;6.05;;;3.22;;
20597;SDS011;10457;48.770;11.446;2022-07-09T04:52:24;4.28;;;2.95;;
20597;SDS011;10457;48.770;11.446;2022-07-09T04:57:47;5.93;;;3.25;;
20597;SDS011;10457;48.770;11.446;2022-07-09T05:03:09;7.75;;;3.38;;
20597;SDS011;10457;48.770;11.446;2022-07-09T05:08:32;8.98;;;3.28;;
20597;SDS011;10457;48.770;11.446;2022-07-09T05:13:53;7.35;;;3.60;;
20597;SDS011;10457;48.770;11.446;2022-07-09T05:19:15;4.25;;;3.45;;
20597;SDS011;10457;48.770;11.446;2022-07-09T05:24:38;4.50;;;3.40;;
20597;SDS011;10457;48.770;11.446;2022-07-09T05:30:01;5.85;;;3.30;;
20597;SDS011;10457;48.770;11.446;2022-07-09T05:35:22;4.78;;;3.05;;
20597;SDS011;10457;48.770;11.446;2022-07-09T05:40:45;8.23;;;3.38;;
20597;SDS011;10457;48.770;11.446;2022-07-09T05:46:07;7.10;;;3.90;;
20597;SDS011;10457;48.770;11.446;2022-07-09T05:51:28;4.00;;;3.35;;
20597;SDS011;10457;48.770;11.446;2022-07-09T05:56:51;8.95;;;3.83;;
20597;SDS011;10457;48.770;11.446;2022-07-09T06:02:13;10.02;;;3.95;;
20597;SDS011;10457;48.770;11.446;2022-07-09T06:07:35;6.03;;;3.00;;
20597;SDS011;10457;48.770;11.446;2022-07-09T06:12:58;4.53;;;3.15;;
20597;SDS011;10457;48.770;11.446;2022-07-09T06:18:19;4.70;;;3.15;;
20597;SDS011;10457;48.770;11.446;2022-07-09T06:23:41;3.80;;;3.30;;
20597;SDS011;10457;48.770;11.446;2022-07-09T06:29:05;5.68;;;3.38;;
20597;SDS011;10457;48.770;11.446;2022-07-09T06:34:26;4.38;;;3.20;;
20597;SDS011;10457;48.770;11.446;2022-07-09T06:39:48;2.90;;;2.50;;
20597;SDS011;10457;48.770;11.446;2022-07-09T06:45:11;5.57;;;2.78;;
20597;SDS011;10457;48.770;11.446;2022-07-09T06:50:33;4.43;;;2.88;;
20597;SDS011;10457;48.770;11.446;2022-07-09T06:55:55;4.25;;;2.50;;
20597;SDS011;10457;48.770;11.446;2022-07-09T07:01:18;4.07;;;2.33;;
20597;SDS011;10457;48.770;11.446;2022-07-09T07:06:39;5.97;;;3.30;;
20597;SDS011;10457;48.770;11.446;2022-07-09T07:12:02;4.43;;;2.95;;
20597;SDS011;10457;48.770;11.446;2022-07-09T07:17:26;4.65;;;2.75;;
20597;SDS011;10457;48.770;11.446;2022-07-09T07:22:48;6.57;;;2.50;;
20597;SDS011;10457;48.770;11.446;2022-07-09T07:28:09;5.50;;;2.22;;
20597;SDS011;10457;48.770;11.446;2022-07-09T07:33:32;8.32;;;2.75;;
20597;SDS011;10457;48.770;11.446;2022-07-09T07:38:54;4.28;;;1.85;;
20597;SDS011;10457;48.770;11.446;2022-07-09T07:44:16;4.00;;;2.20;;
20597;SDS011;10457;48.770;11.446;2022-07-09T07:49:39;4.40;;;2.17;;
20597;SDS011;10457;48.770;11.446;2022-07-09T07:55:00;2.38;;;1.80;;
20597;SDS011;10457;48.770;11.446;2022-07-09T08:00:22;5.30;;;1.95;;
20597;SDS011;10457;48.770;11.446;2022-07-09T08:05:47;1.48;;;0.93;;
20597;SDS011;10457;48.770;11.446;2022-07-09T08:11:08;1.20;;;1.15;;
20597;SDS011;10457;48.770;11.446;2022-07-09T08:16:30;5.65;;;1.65;;
20597;SDS011;10457;48.770;11.446;2022-07-09T08:21:53;1.52;;;1.15;;
20597;SDS011;10457;48.770;11.446;2022-07-09T08:27:14;3.70;;;1.17;;
20597;SDS011;10457;48.770;11.446;2022-07-09T08:32:36;2.50;;;1.17;;
20597;SDS011;10457;48.770;11.446;2022-07-09T08:38:00;1.45;;;1.35;;
20597;SDS011;10457;48.770;11.446;2022-07-09T08:43:21;1.40;;;1.30;;
20597;SDS011;10457;48.770;11.446;2022-07-09T08:48:43;2.67;;;0.98;;
20597;SDS011;10457;48.770;11.446;2022-07-09T08:54:07;2.70;;;1.40;;
20597;SDS011;10457;48.770;11.446;2022-07-09T08:59:30;3.85;;;1.50;;
20597;SDS011;10457;48.770;11.446;2022-07-09T09:04:54;4.57;;;1.92;;
20597;SDS011;10457;48.770;11.446;2022-07-09T09:10:23;1.63;;;1.35;;
20597;SDS011;10457;48.770;11.446;2022-07-09T09:15:46;1.73;;;1.40;;
20597;SDS011;10457;48.770;11.446;2022-07-09T09:21:08;2.95;;;1.40;;
20597;SDS011;10457;48.770;11.446;2022-07-09T09:26:31;1.58;;;1.00;;
20597;SDS011;10457;48.770;11.446;2022-07-09T09:31:54;6.28;;;2.10;;
20597;SDS011;10457;48.770;11.446;2022-07-09T09:37:24;8.20;;;2.10;;
20597;SDS011;10457;48.770;11.446;2022-07-09T09:42:49;1.63;;;1.40;;
20597;SDS011;10457;48.770;11.446;2022-07-09T09:48:10;2.83;;;1.20;;
20597;SDS011;10457;48.770;11.446;2022-07-09T09:53:32;3.53;;;1.60;;
20597;SDS011;10457;48.770;11.446;2022-07-09T09:58:56;1.70;;;1.17;;
20597;SDS011;10457;48.770;11.446;2022-07-09T10:04:18;1.10;;;1.00;;
20597;SDS011;10457;48.770;11.446;2022-07-09T10:09:41;2.95;;;1.45;;
20597;SDS011;10457;48.770;11.446;2022-07-09T10:15:21;3.00;;;1.45;;
20597;SDS011;10457;48.770;11.446;2022-07-09T10:20:45;1.13;;;1.02;;
20597;SDS011;10457;48.770;11.446;2022-07-09T10:26:09;2.88;;;1.17;;
20597;SDS011;10457;48.770;11.446;2022-07-09T10:31:31;1.48;;;1.23;;
20597;SDS011;10457;48.770;11.446;2022-07-09T10:36:56;3.08;;;1.30;;
20597;SDS011;10457;48.770;11.446;2022-07-09T10:42:19;2.15;;;1.20;;
20597;SDS011;10457;48.770;11.446;2022-07-09T10:47:45;2.65;;;1.50;;
20597;SDS011;10457;48.770;11.446;2022-07-09T10:53:11;3.28;;;1.40;;
20597;SDS011;10457;48.770;11.446;2022-07-09T10:58:32;2.58;;;1.65;;
20597;SDS011;10457;48.770;11.446;2022-07-09T11:03:55;1.65;;;1.13;;
20597;SDS011;10457;48.770;11.446;2022-07-09T11:09:18;1.45;;;1.23;;
20597;SDS011;10457;48.770;11.446;2022-07-09T11:14:42;1.63;;;1.10;;
20597;SDS011;10457;48.770;11.446;2022-07-09T11:20:07;3.30;;;1.23;;
20597;SDS011;10457;48.770;11.446;2022-07-09T11:25:31;3.13;;;1.27;;
20597;SDS011;10457;48.770;11.446;2022-07-09T11:30:59;5.72;;;1.75;;
20597;SDS011;10457;48.770;11.446;2022-07-09T11:36:23;3.55;;;1.17;;
20597;SDS011;10457;48.770;11.446;2022-07-09T11:41:45;2.22;;;1.25;;
20597;SDS011;10457;48.770;11.446;2022-07-09T11:47:07;1.88;;;1.35;;
20597;SDS011;10457;48.770;11.446;2022-07-09T11:52:31;2.30;;;1.30;;
20597;SDS011;10457;48.770;11.446;2022-07-09T11:57:54;2.08;;;0.82;;
20597;SDS011;10457;48.770;11.446;2022-07-09T12:03:22;2.83;;;0.95;;
20597;SDS011;10457;48.770;11.446;2022-07-09T12:08:45;0.93;;;0.80;;
20597;SDS011;10457;48.770;11.446;2022-07-09T12:14:07;2.08;;;1.05;;
20597;SDS011;10457;48.770;11.446;2022-07-09T12:19:29;3.88;;;1.33;;
20597;SDS011;10457;48.770;11.446;2022-07-09T12:24:52;1.02;;;1.02;;
20597;SDS011;10457;48.770;11.446;2022-07-09T12:30:14;2.05;;;0.85;;
20597;SDS011;10457;48.770;11.446;2022-07-09T12:35:36;1.75;;;1.20;;
20597;SDS011;10457;48.770;11.446;2022-07-09T12:40:59;2.78;;;1.30;;
20597;SDS011;10457;48.770;11.446;2022-07-09T12:46:20;0.70;;;0.70;;
20597;SDS011;10457;48.770;11.446;2022-07-09T12:51:42;1.23;;;0.90;;
20597;SDS011;10457;48.770;11.446;2022-07-09T12:57:05;2.95;;;1.63;;
20597;SDS011;10457;48.770;11.446;2022-07-09T13:02:30;2.83;;;0.80;;
20597;SDS011;10457;48.770;11.446;2022-07-09T13:07:52;1.73;;;0.90;;
20597;SDS011;10457;48.770;11.446;2022-07-09T13:13:15;0.60;;;0.60;;
20597;SDS011;10457;48.770;11.446;2022-07-09T13:18:37;1.33;;;1.05;;
20597;SDS011;10457;48.770;11.446;2022-07-09T13:23:58;1.38;;;1.20;;
20597;SDS011;10457;48.770;11.446;2022-07-09T13:29:21;0.98;;;0.60;;
20597;SDS011;10457;48.770;11.446;2022-07-09T13:34:43;1.30;;;1.13;;
20597;SDS011;10457;48.770;11.446;2022-07-09T13:40:05;3.50;;;0.93;;
20597;SDS011;10457;48.770;11.446;2022-07-09T13:45:29;2.72;;;0.90;;
20597;SDS011;10457;48.770;11.446;2022-07-09T13:50:50;4.03;;;0.90;;
20597;SDS011;10457;48.770;11.446;2022-07-09T13:56:12;3.55;;;0.82;;
20597;SDS011;10457;48.770;11.446;2022-07-09T14:01:36;1.23;;;1.00;;
20597;SDS011;10457;48.770;11.446;2022-07-09T14:06:57;1.40;;;0.70;;
20597;SDS011;10457;48.770;11.446;2022-07-09T14:12:19;3.22;;;0.88;;
20597;SDS011;10457;48.770;11.446;2022-07-09T14:17:43;2.08;;;0.98;;
20597;SDS011;10457;48.770;11.446;2022-07-09T14:23:05;4.78;;;1.13;;
20597;SDS011;10457;48.770;11.446;2022-07-09T14:28:27;2.67;;;1.38;;
20597;SDS011;10457;48.770;11.446;2022-07-09T14:33:49;1.85;;;0.88;;
20597;SDS011;10457;48.770;11.446;2022-07-09T14:39:11;1.00;;;1.00;;
20597;SDS011;10457;48.770;11.446;2022-07-09T14:44:33;3.08;;;0.82;;
20597;SDS011;10457;48.770;11.446;2022-07-09T14:49:56;1.67;;;1.13;;
20597;SDS011;10457;48.770;11.446;2022-07-09T14:55:17;1.38;;;1.27;;
20597;SDS011;10457;48.770;11.446;2022-07-09T15:00:38;2.92;;;1.27;;
20597;SDS011;10457;48.770;11.446;2022-07-09T15:06:02;2.60;;;1.20;;
20597;SDS011;10457;48.770;11.446;2022-07-09T15:11:24;1.83;;;1.30;;
20597;SDS011;10457;48.770;11.446;2022-07-09T15:16:45;3.13;;;1.05;;
20597;SDS011;10457;48.770;11.446;2022-07-09T15:22:08;3.40;;;1.15;;
20597;SDS011;10457;48.770;11.446;2022-07-09T15:27:30;1.92;;;1.17;;
20597;SDS011;10457;48.770;11.446;2022-07-09T15:32:52;1.58;;;1.42;;
20597;SDS011;10457;48.770;11.446;2022-07-09T15:38:14;2.70;;;1.25;;
20597;SDS011;10457;48.770;11.446;2022-07-09T15:43:36;3.30;;;1.45;;
20597;SDS011;10457;48.770;11.446;2022-07-09T15:48:57;3.25;;;0.95;;
20597;SDS011;10457;48.770;11.446;2022-07-09T15:54:21;3.45;;;1.65;;
20597;SDS011;10457;48.770;11.446;2022-07-09T15:59:43;3.67;;;1.65;;
20597;SDS011;10457;48.770;11.446;2022-07-09T16:05:05;1.70;;;1.60;;
20597;SDS011;10457;48.770;11.446;2022-07-09T16:10:29;2.40;;;1.30;;
20597;SDS011;10457;48.770;11.446;2022-07-09T16:15:50;3.53;;;1.85;;
20597;SDS011;10457;48.770;11.446;2022-07-09T16:21:19;0.95;;;0.90;;
20597;SDS011;10457;48.770;11.446;2022-07-09T16:27:12;4.10;;;2.00;;
20597;SDS011;10457;48.770;11.446;2022-07-09T16:32:54;1.98;;;1.60;;
20597;SDS011;10457;48.770;11.446;2022-07-09T16:38:16;3.10;;;1.58;;
20597;SDS011;10457;48.770;11.446;2022-07-09T16:43:39;3.60;;;1.55;;
20597;SDS011;10457;48.770;11.446;2022-07-09T16:49:01;5.03;;;1.80;;
20597;SDS011;10457;48.770;11.446;2022-07-09T16:54:23;2.28;;;1.60;;
20597;SDS011;10457;48.770;11.446;2022-07-09T16:59:46;1.65;;;1.55;;
20597;SDS011;10457;48.770;11.446;2022-07-09T17:05:07;2.10;;;1.50;;
20597;SDS011;10457;48.770;11.446;2022-07-09T17:10:31;6.10;;;1.70;;
20597;SDS011;10457;48.770;11.446;2022-07-09T17:15:54;3.95;;;1.30;;
20597;SDS011;10457;48.770;11.446;2022-07-09T17:21:16;2.45;;;1.30;;
20597;SDS011;10457;48.770;11.446;2022-07-09T17:26:38;1.80;;;1.70;;
20597;SDS011;10457;48.770;11.446;2022-07-09T17:32:01;4.13;;;1.40;;
20597;SDS011;10457;48.770;11.446;2022-07-09T17:37:22;1.95;;;1.13;;
20597;SDS011;10457;48.770;11.446;2022-07-09T17:42:44;1.55;;;0.98;;
20597;SDS011;10457;48.770;11.446;2022-07-09T17:48:07;2.25;;;1.38;;
20597;SDS011;10457;48.770;11.446;2022-07-09T17:53:29;4.60;;;1.88;;
20597;SDS011;10457;48.770;11.446;2022-07-09T17:58:51;2.08;;;1.88;;
20597;SDS011;10457;48.770;11.446;2022-07-09T18:04:14;2.17;;;1.75;;
20597;SDS011;10457;48.770;11.446;2022-07-09T18:09:37;3.97;;;2.15;;
20597;SDS011;10457;48.770;11.446;2022-07-09T18:15:00;2.88;;;1.58;;
20597;SDS011;10457;48.770;11.446;2022-07-09T18:20:22;3.13;;;1.85;;
20597;SDS011;10457;48.770;11.446;2022-07-09T18:25:44;3.78;;;1.83;;
20597;SDS011;10457;48.770;11.446;2022-07-09T18:31:06;5.68;;;2.13;;
20597;SDS011;10457;48.770;11.446;2022-07-09T18:36:29;5.85;;;3.50;;
20597;SDS011;10457;48.770;11.446;2022-07-09T18:41:50;3.15;;;1.52;;
20597;SDS011;10457;48.770;11.446;2022-07-09T18:47:12;2.08;;;1.88;;
20597;SDS011;10457;48.770;11.446;2022-07-09T18:52:36;2.65;;;2.15;;
20597;SDS011;10457;48.770;11.446;2022-07-09T18:57:58;1.85;;;1.75;;
20597;SDS011;10457;48.770;11.446;2022-07-09T19:03:20;2.80;;;1.80;;
20597;SDS011;10457;48.770;11.446;2022-07-09T19:08:43;1.83;;;1.73;;
20597;SDS011;10457;48.770;11.446;2022-07-09T19:14:04;2.22;;;1.80;;
20597;SDS011;10457;48.770;11.446;2022-07-09T19:19:26;4.05;;;1.80;;
20597;SDS011;10457;48.770;11.446;2022-07-09T19:24:49;3.03;;;2.17;;
20597;SDS011;10457;48.770;11.446;2022-07-09T19:30:11;2.95;;;2.30;;
20597;SDS011;10457;48.770;11.446;2022-07-09T19:35:32;3.28;;;2.75;;
20597;SDS011;10457;48.770;11.446;2022-07-09T19:40:56;2.72;;;2.47;;
20597;SDS011;10457;48.770;11.446;2022-07-09T19:46:18;2.58;;;2.38;;
20597;SDS011;10457;48.770;11.446;2022-07-09T19:51:40;4.28;;;2.45;;
20597;SDS011;10457;48.770;11.446;2022-07-09T19:57:04;4.00;;;2.92;;
20597;SDS011;10457;48.770;11.446;2022-07-09T20:02:25;3.28;;;2.75;;
20597;SDS011;10457;48.770;11.446;2022-07-09T20:07:47;3.05;;;2.85;;
20597;SDS011;10457;48.770;11.446;2022-07-09T20:13:10;3.38;;;2.55;;
20597;SDS011;10457;48.770;11.446;2022-07-09T20:18:32;4.72;;;3.10;;
20597;SDS011;10457;48.770;11.446;2022-07-09T20:23:57;2.63;;;2.42;;
20597;SDS011;10457;48.770;11.446;2022-07-09T20:29:20;4.93;;;2.58;;
20597;SDS011;10457;48.770;11.446;2022-07-09T20:34:41;3.35;;;2.60;;
20597;SDS011;10457;48.770;11.446;2022-07-09T20:40:03;2.53;;;2.30;;
20597;SDS011;10457;48.770;11.446;2022-07-09T20:45:27;4.03;;;2.92;;
20597;SDS011;10457;48.770;11.446;2022-07-09T20:50:49;2.60;;;2.40;;
20597;SDS011;10457;48.770;11.446;2022-07-09T20:56:10;3.50;;;2.58;;
20597;SDS011;10457;48.770;11.446;2022-07-09T21:01:35;3.28;;;2.97;;
20597;SDS011;10457;48.770;11.446;2022-07-09T21:06:56;4.13;;;2.78;;
20597;SDS011;10457;48.770;11.446;2022-07-09T21:12:18;4.25;;;2.63;;
20597;SDS011;10457;48.770;11.446;2022-07-09T21:17:41;2.92;;;2.72;;
20597;SDS011;10457;48.770;11.446;2022-07-09T21:23:20;6.22;;;3.55;;
20597;SDS011;10457;48.770;11.446;2022-07-09T21:28:42;3.17;;;2.90;;
20597;SDS011;10457;48.770;11.446;2022-07-09T21:34:04;5.45;;;3.00;;
20597;SDS011;10457;48.770;11.446;2022-07-09T21:39:26;3.42;;;3.20;;
20597;SDS011;10457;48.770;11.446;2022-07-09T21:44:48;3.30;;;2.95;;
20597;SDS011;10457;48.770;11.446;2022-07-09T21:50:11;3.88;;;3.50;;
20597;SDS011;10457;48.770;11.446;2022-07-09T21:55:33;4.55;;;2.92;;
20597;SDS011;10457;48.770;11.446;2022-07-09T22:00:55;6.70;;;4.03;;
20597;SDS011;10457;48.770;11.446;2022-07-09T22:06:18;4.55;;;4.15;;
20597;SDS011;10457;48.770;11.446;2022-07-09T22:11:40;3.95;;;3.63;;
20597;SDS011;10457;48.770;11.446;2022-07-09T22:17:01;4.45;;;3.92;;
20597;SDS011;10457;48.770;11.446;2022-07-09T22:22:25;3.83;;;3.50;;
20597;SDS011;10457;48.770;11.446;2022-07-09T22:27:46;4.30;;;3.22;;
20597;SDS011;10457;48.770;11.446;2022-07-09T22:33:08;3.40;;;3.13;;
20597;SDS011;10457;48.770;11.446;2022-07-09T22:38:31;6.75;;;3.00;;
20597;SDS011;10457;48.770;11.446;2022-07-09T22:43:53;3.13;;;2.92;;
20597;SDS011;10457;48.770;11.446;2022-07-09T22:49:15;4.00;;;3.47;;
20597;SDS011;10457;48.770;11.446;2022-07-09T22:54:38;3.00;;;2.72;;
20597;SDS011;10457;48.770;11.446;2022-07-09T22:59:59;3.53;;;3.00;;
20597;SDS011;10457;48.770;11.446;2022-07-09T23:05:21;3.97;;;3.40;;
20597;SDS011;10457;48.770;11.446;2022-07-09T23:10:43;4.63;;;4.15;;
20597;SDS011;10457;48.770;11.446;2022-07-09T23:16:05;3.95;;;3.55;;
20597;SDS011;10457;48.770;11.446;2022-07-09T23:21:28;4.43;;;4.00;;
20597;SDS011;10457;48.770;11.446;2022-07-09T23:26:52;4.22;;;3.83;;
20597;SDS011;10457;48.770;11.446;2022-07-09T23:32:13;4.38;;;3.95;;
20597;SDS011;10457;48.770;11.446;2022-07-09T23:37:35;5.10;;;3.75;;
20597;SDS011;10457;48.770;11.446;2022-07-09T23:42:58;4.35;;;3.58;;
20597;SDS011;10457;48.770;11.446;2022-07-09T23:48:20;4.65;;;3.78;;
20597;SDS011;10457;48.770;11.446;2022-07-09T23:53:41;5.18;;;4.78;;
20597;SDS011;10457;48.770;11.446;2022-07-09T23:59:04;5.68;;;4.65;;
